createdAt,value
2022-09-29T00:04:20.021Z,8.90
2022-09-29T00:09:21.704Z,8.72
2022-09-29T00:14:23.830Z,8.55
2022-09-29T00:19:25.607Z,8.49
2022-09-29T00:24:27.895Z,8.39
2022-09-29T00:29:29.514Z,8.36
2022-09-29T00:34:31.192Z,8.49
2022-09-29T00:39:32.826Z,8.56
2022-09-29T00:45:02.781Z,8.68
2022-09-29T00:50:17.768Z,8.64
2022-09-29T00:55:31.869Z,8.51
2022-09-29T01:00:33.630Z,8.41
2022-09-29T01:05:40.143Z,8.31
2022-09-29T01:10:43.601Z,8.25
2022-09-29T01:15:45.549Z,8.19
2022-09-29T01:21:12.095Z,8.15
2022-09-29T01:26:16.940Z,8.24
2022-09-29T01:31:38.834Z,8.44
2022-09-29T01:36:49.681Z,8.40
2022-09-29T01:41:58.062Z,8.56
2022-09-29T01:47:16.523Z,8.66
2022-09-29T01:52:21.713Z,8.55
2022-09-29T01:57:28.344Z,8.41
2022-09-29T02:02:56.188Z,8.37
2022-09-29T02:08:02.784Z,8.38
2022-09-29T02:13:07.635Z,8.42
2022-09-29T02:18:23.267Z,8.47
2022-09-29T02:23:25.154Z,8.67
2022-09-29T02:28:27.501Z,8.65
2022-09-29T02:33:29.206Z,8.73
2022-09-29T02:38:37.187Z,8.61
2022-09-29T02:43:44.629Z,8.54
2022-09-29T02:49:01.939Z,8.62
2022-09-29T02:54:33.305Z,8.62
2022-09-29T02:59:50.489Z,8.53
2022-09-29T03:04:53.647Z,8.40
2022-09-29T03:09:55.438Z,8.32
2022-09-29T03:14:57.160Z,8.36
2022-09-29T03:19:59.026Z,8.41
2022-09-29T03:25:00.714Z,8.29
2022-09-29T03:30:03.087Z,8.29
2022-09-29T03:35:05.432Z,8.29
2022-09-29T03:40:07.968Z,8.28
2022-09-29T03:45:10.057Z,8.20
2022-09-29T03:50:11.833Z,8.23
2022-09-29T03:55:13.562Z,8.19
2022-09-29T04:00:15.588Z,8.24
2022-09-29T04:05:18.353Z,8.33
2022-09-29T04:10:20.059Z,8.29
2022-09-29T04:15:21.825Z,8.35
2022-09-29T04:20:23.490Z,8.38
2022-09-29T04:25:25.198Z,8.40
2022-09-29T04:30:26.925Z,8.41
2022-09-29T04:35:33.606Z,8.45
2022-09-29T04:40:38.010Z,8.25
2022-09-29T04:45:39.843Z,8.18
2022-09-29T04:50:42.071Z,8.33
2022-09-29T04:55:44.127Z,8.36
2022-09-29T05:00:45.922Z,8.26
2022-09-29T05:05:47.593Z,8.20
2022-09-29T05:10:51.242Z,8.11
2022-09-29T05:15:56.706Z,8.29
2022-09-29T05:21:29.297Z,8.52
2022-09-29T05:26:28.110Z,8.62
2022-09-29T05:31:29.871Z,8.56
2022-09-29T05:36:31.675Z,8.70
2022-09-29T05:41:33.381Z,8.75
2022-09-29T05:46:35.201Z,8.98
2022-09-29T05:51:37.151Z,9.10
2022-09-29T05:56:41.877Z,9.18
2022-09-29T06:01:46.870Z,9.27
2022-09-29T06:06:48.923Z,9.43
2022-09-29T06:11:50.634Z,9.58
2022-09-29T06:16:52.415Z,9.58
2022-09-29T06:21:54.145Z,9.66
2022-09-29T06:26:55.882Z,9.80
2022-09-29T06:31:57.648Z,9.88
2022-09-29T06:37:18.274Z,9.89
2022-09-29T06:42:19.987Z,9.87
2022-09-29T06:47:21.952Z,9.88
2022-09-29T06:52:26.588Z,9.86
2022-09-29T06:57:31.757Z,9.95
2022-09-29T07:02:33.441Z,9.98
2022-09-29T07:07:35.604Z,10.05
2022-09-29T07:12:38.564Z,10.14
2022-09-29T07:17:40.470Z,10.27
2022-09-29T07:22:42.218Z,10.34
2022-09-29T07:27:43.965Z,10.38
2022-09-29T07:32:57.893Z,10.39
2022-09-29T07:38:02.681Z,10.50
2022-09-29T07:43:04.577Z,10.61
2022-09-29T07:48:06.339Z,10.65
2022-09-29T07:53:08.438Z,10.63
2022-09-29T07:58:10.277Z,10.65
2022-09-29T08:03:12.129Z,10.71
2022-09-29T08:08:13.780Z,10.80
2022-09-29T08:13:15.531Z,10.84
2022-09-29T08:18:17.194Z,10.87
2022-09-29T08:23:18.870Z,10.88
2022-09-29T08:28:29.422Z,10.92
2022-09-29T08:33:33.333Z,10.98
2022-09-29T08:38:42.530Z,11.14
2022-09-29T08:43:46.765Z,11.18
2022-09-29T08:48:58.032Z,11.29
2022-09-29T08:54:06.305Z,11.36
2022-09-29T08:59:11.097Z,11.42
2022-09-29T09:04:28.928Z,11.53
2022-09-29T09:09:56.350Z,11.58
2022-09-29T09:15:30.881Z,11.58
2022-09-29T09:20:45.511Z,11.62
2022-09-29T09:26:03.215Z,11.71
2022-09-29T09:31:14.998Z,11.72
2022-09-29T09:37:01.895Z,11.78
2022-09-29T09:42:13.887Z,11.95
2022-09-29T09:47:27.061Z,12.10
2022-09-29T09:52:41.243Z,12.16
2022-09-29T09:58:01.431Z,12.39
2022-09-29T10:03:06.889Z,12.55
2022-09-29T10:08:29.258Z,12.63
2022-09-29T10:13:31.513Z,12.58
2022-09-29T10:18:43.014Z,12.61
2022-09-29T10:23:51.950Z,12.73
2022-09-29T10:29:21.991Z,12.78
2022-09-29T10:34:25.214Z,12.83
2022-09-29T10:39:43.186Z,12.77
2022-09-29T10:44:51.347Z,12.86
2022-09-29T10:50:16.854Z,12.79
2022-09-29T10:55:29.777Z,12.76
2022-09-29T11:00:38.239Z,12.85
2022-09-29T11:05:52.151Z,12.88
2022-09-29T11:11:04.813Z,12.89
2022-09-29T11:16:15.368Z,12.94
2022-09-29T11:21:20.240Z,13.00
2022-09-29T11:26:54.147Z,13.09
2022-09-29T11:32:19.618Z,13.13
2022-09-29T11:37:53.379Z,13.08
2022-09-29T11:43:30.719Z,12.96
2022-09-29T11:48:53.614Z,12.85
2022-09-29T11:54:13.188Z,12.72
2022-09-29T11:59:43.019Z,12.65
2022-09-29T12:05:07.825Z,12.58
2022-09-29T12:10:34.613Z,12.50
2022-09-29T12:15:48.720Z,12.44
2022-09-29T12:20:54.085Z,12.49
2022-09-29T12:26:21.288Z,12.58
2022-09-29T12:31:35.383Z,12.60
2022-09-29T12:37:03.561Z,12.64
2022-09-29T12:42:46.583Z,12.62
2022-09-29T12:48:05.368Z,12.65
2022-09-29T12:53:18.831Z,12.71
2022-09-29T12:58:53.111Z,12.76
2022-09-29T13:04:17.806Z,12.72
2022-09-29T13:09:49.922Z,12.67
2022-09-29T13:15:21.705Z,12.64
2022-09-29T13:20:32.401Z,12.51
2022-09-29T13:25:44.697Z,12.66
2022-09-29T13:30:46.834Z,12.76
2022-09-29T13:35:50.735Z,12.82
2022-09-29T13:41:39.464Z,12.87
2022-09-29T13:46:41.347Z,12.90
2022-09-29T13:52:31.047Z,12.91
2022-09-29T13:57:32.727Z,12.95
2022-09-29T14:02:34.417Z,12.91
2022-09-29T14:07:38.865Z,12.82
2022-09-29T14:12:41.799Z,12.88
2022-09-29T14:17:46.642Z,12.99
2022-09-29T14:23:05.462Z,12.89
2022-09-29T14:28:12.930Z,12.80
2022-09-29T14:33:21.796Z,12.75
2022-09-29T14:38:28.755Z,12.72
2022-09-29T14:43:39.882Z,12.68
2022-09-29T14:49:18.727Z,12.73
2022-09-29T14:54:46.836Z,12.84
2022-09-29T15:00:18.886Z,12.89
2022-09-29T15:05:31.439Z,12.95
2022-09-29T15:10:40.530Z,12.96
2022-09-29T15:15:43.468Z,12.92
2022-09-29T15:21:01.665Z,12.90
2022-09-29T15:26:03.710Z,12.80
2022-09-29T15:31:09.393Z,12.79
2022-09-29T15:36:20.286Z,12.67
2022-09-29T15:41:29.201Z,12.59
2022-09-29T15:46:35.144Z,12.59
2022-09-29T15:51:37.791Z,12.63
2022-09-29T15:56:58.321Z,12.68
2022-09-29T16:02:06.278Z,12.71
2022-09-29T16:07:19.219Z,12.72
2022-09-29T16:12:21.146Z,12.72
2022-09-29T16:17:24.879Z,12.71
2022-09-29T16:22:27.249Z,12.69
2022-09-29T16:27:43.550Z,12.63
2022-09-29T16:32:45.226Z,12.57
2022-09-29T16:37:47.193Z,12.50
2022-09-29T16:42:53.228Z,12.38
2022-09-29T16:47:55.058Z,12.37
2022-09-29T16:52:56.967Z,12.36
2022-09-29T16:58:10.081Z,12.25
2022-09-29T17:03:12.205Z,12.25
2022-09-29T17:08:25.488Z,12.26
2022-09-29T17:13:32.737Z,12.23
2022-09-29T17:18:34.510Z,12.16
2022-09-29T17:23:36.204Z,12.20
2022-09-29T17:28:38.047Z,12.18
2022-09-29T17:33:41.376Z,12.10
2022-09-29T17:38:43.032Z,11.89
2022-09-29T17:43:47.706Z,11.76
2022-09-29T17:48:49.521Z,11.74
2022-09-29T17:53:51.210Z,11.74
2022-09-29T17:58:53.965Z,11.61
2022-09-29T18:03:57.256Z,11.55
2022-09-29T18:08:59.698Z,11.43
2022-09-29T18:14:01.477Z,11.38
2022-09-29T18:19:03.296Z,11.33
2022-09-29T18:24:05.274Z,11.22
2022-09-29T18:29:17.183Z,11.20
2022-09-29T18:34:21.044Z,11.20
2022-09-29T18:39:23.016Z,11.10
2022-09-29T18:44:29.283Z,10.98
2022-09-29T18:49:30.972Z,10.91
2022-09-29T18:54:33.400Z,10.91
2022-09-29T18:59:35.406Z,11.02
2022-09-29T19:04:37.189Z,11.03
2022-09-29T19:09:39.199Z,10.95
2022-09-29T19:14:42.521Z,10.95
2022-09-29T19:19:44.252Z,10.97
2022-09-29T19:24:46.454Z,11.03
2022-09-29T19:29:53.650Z,11.14
2022-09-29T19:34:56.109Z,11.09
2022-09-29T19:39:58.202Z,11.13
2022-09-29T19:44:59.890Z,11.11
2022-09-29T19:50:20.039Z,11.02
2022-09-29T19:55:22.513Z,11.07
2022-09-29T20:00:25.089Z,11.07
2022-09-29T20:05:27.212Z,10.89
2022-09-29T20:10:29.311Z,10.74
2022-09-29T20:15:31.236Z,10.69
2022-09-29T20:20:33.228Z,10.86
2022-09-29T20:25:34.937Z,10.91
2022-09-29T20:30:36.637Z,10.91
2022-09-29T20:35:39.477Z,10.95
2022-09-29T20:40:41.543Z,10.91
2022-09-29T20:45:43.321Z,10.73
2022-09-29T20:50:45.521Z,10.63
2022-09-29T20:55:47.514Z,10.72
2022-09-29T21:00:49.180Z,10.71
2022-09-29T21:05:50.991Z,10.65
2022-09-29T21:11:02.317Z,10.56
2022-09-29T21:16:04.908Z,10.65
2022-09-29T21:21:10.711Z,10.59
2022-09-29T21:26:15.198Z,10.41
2022-09-29T21:31:19.084Z,10.35
2022-09-29T21:36:22.214Z,10.49
2022-09-29T21:41:27.439Z,10.58
2022-09-29T21:46:31.927Z,10.58
2022-09-29T21:51:37.826Z,10.66
2022-09-29T21:56:41.567Z,10.74
2022-09-29T22:01:45.217Z,10.67
2022-09-29T22:06:47.240Z,10.54
2022-09-29T22:11:50.669Z,10.41
2022-09-29T22:16:53.234Z,10.29
2022-09-29T22:21:55.373Z,10.23
2022-09-29T22:26:57.258Z,10.20
2022-09-29T22:31:59.067Z,10.06
2022-09-29T22:37:00.922Z,10.17
2022-09-29T22:42:02.678Z,10.24
2022-09-29T22:47:05.472Z,10.30
2022-09-29T22:52:07.145Z,10.38
2022-09-29T22:57:08.957Z,10.36
2022-09-29T23:02:10.741Z,10.39
2022-09-29T23:07:12.541Z,10.44
2022-09-29T23:12:14.355Z,10.50
2022-09-29T23:17:16.061Z,10.35
2022-09-29T23:22:17.775Z,10.15
2022-09-29T23:27:22.874Z,10.12
2022-09-29T23:32:24.560Z,10.16
2022-09-29T23:37:46.269Z,10.19
2022-09-29T23:42:48.010Z,10.22
2022-09-29T23:47:50.869Z,9.97
2022-09-29T23:52:52.475Z,9.85
2022-09-29T23:57:54.858Z,9.81
